Time;durP1;ratioP1;P1;durP2;ratioP2;P2;SDS_P1;SDS_P2;PMS_P1;PMS_P2;Temp;Humidity;BMP_temperature;BMP_pressure;BME280_temperature;BME280_humidity;BME280_pressure;Samples;Min_cycle;Max_cycle;Signal;HPM_P1;HPM_P2
2022/06/10 00:01:48;;;;;;;5.07;2.80;;;15.50;99.90;;;;;;5048446;28;20427;-71
2022/06/10 00:04:14;;;;;;;2.90;2.53;;;15.50;99.90;;;;;;5048873;28;20175;-70
2022/06/10 00:06:39;;;;;;;4.63;2.63;;;15.50;99.90;;;;;;5047349;28;20405;-71
2022/06/10 00:09:05;;;;;;;4.23;3.00;;;15.40;99.90;;;;;;5047278;28;20194;-70
2022/06/10 00:11:31;;;;;;;3.47;2.37;;;15.30;99.90;;;;;;5048453;28;20210;-70
2022/06/10 00:13:56;;;;;;;5.03;2.43;;;15.40;99.90;;;;;;5066120;28;20197;-71
2022/06/10 00:16:22;;;;;;;4.93;2.50;;;15.20;99.90;;;;;;5060064;28;20187;-70
2022/06/10 00:18:48;;;;;;;6.50;2.93;;;15.20;99.90;;;;;;5047465;28;20182;-73
2022/06/10 00:21:20;;;;;;;5.70;2.27;;;15.20;99.90;;;;;;5047754;28;20577;-70
2022/06/10 00:23:46;;;;;;;7.07;2.80;;;15.20;99.90;;;;;;5048313;28;20434;-70
2022/06/10 00:26:13;;;;;;;4.07;2.67;;;15.20;99.90;;;;;;5048377;28;20401;-69
2022/06/10 00:28:42;;;;;;;2.83;2.10;;;15.20;99.90;;;;;;5045814;28;20506;-70
2022/06/10 00:31:08;;;;;;;4.70;2.90;;;15.20;99.90;;;;;;5047965;28;20752;-71
2022/06/10 00:33:34;;;;;;;2.90;2.70;;;15.30;99.90;;;;;;5046868;28;20437;-70
2022/06/10 00:36:01;;;;;;;4.30;3.30;;;15.20;99.90;;;;;;5047429;28;20282;-70
2022/06/10 00:38:27;;;;;;;5.37;2.80;;;15.20;99.90;;;;;;5047302;28;20431;-71
2022/06/10 00:40:55;;;;;;;3.47;2.97;;;15.20;99.90;;;;;;5048184;28;20515;-70
2022/06/10 00:43:24;;;;;;;9.37;4.70;;;15.10;99.90;;;;;;5048372;28;20449;-69
2022/06/10 00:46:19;;;;;;;4.23;2.80;;;15.10;99.90;;;;;;5047833;28;20413;-71
2022/06/10 00:48:47;;;;;;;4.63;3.10;;;15.10;1.00;;;;;;5047832;28;20753;-69
2022/06/10 00:51:13;;;;;;;4.63;2.97;;;15.10;1.00;;;;;;5047510;28;20414;-71
2022/06/10 00:53:40;;;;;;;6.90;3.40;;;15.00;1.00;;;;;;5047930;28;20418;-68
2022/06/10 00:56:16;;;;;;;8.20;3.30;;;15.10;1.00;;;;;;5048029;28;20385;-71
2022/06/10 00:58:52;;;;;;;4.37;2.70;;;15.00;1.00;;;;;;5047235;28;20820;-71
2022/06/10 01:01:20;;;;;;;5.60;3.10;;;15.00;1.00;;;;;;5047544;28;20495;-71
2022/06/10 01:03:46;;;;;;;4.60;3.80;;;15.00;1.00;;;;;;5048165;28;20445;-69
2022/06/10 01:06:11;;;;;;;4.73;3.37;;;15.00;1.00;;;;;;5048013;28;20500;-72
2022/06/10 01:08:38;;;;;;;4.73;3.80;;;15.00;1.00;;;;;;5047056;28;20175;-69
2022/06/10 01:11:47;;;;;;;9.80;3.83;;;14.90;1.00;;;;;;5047713;28;20207;-71
2022/06/10 01:14:30;;;;;;;4.50;3.50;;;14.90;1.00;;;;;;5067761;28;20515;-71
2022/06/10 01:17:16;;;;;;;6.60;3.90;;;14.90;17.60;;;;;;5066793;28;20438;-71
2022/06/10 01:20:13;;;;;;;6.70;4.00;;;14.80;99.90;;;;;;5071147;28;20381;-70
2022/06/10 01:22:51;;;;;;;5.10;3.40;;;14.70;99.90;;;;;;5068574;28;21258;-71
2022/06/10 01:25:31;;;;;;;7.57;4.83;;;14.60;1.00;;;;;;5071688;28;20385;-70
2022/06/10 01:28:36;;;;;;;4.70;3.43;;;14.60;1.00;;;;;;5070883;28;20451;-70
2022/06/10 01:31:38;;;;;;;8.30;4.60;;;14.60;1.00;;;;;;5071233;28;20441;-70
2022/06/10 01:34:15;;;;;;;5.87;4.33;;;14.60;1.00;;;;;;5069359;28;20424;-70
2022/06/10 01:36:58;;;;;;;7.87;3.73;;;14.60;99.90;;;;;;5071033;28;20803;-70
2022/06/10 01:39:32;;;;;;;4.93;4.53;;;14.60;99.90;;;;;;5069772;28;20385;-70
2022/06/10 01:42:30;;;;;;;7.43;4.50;;;14.60;99.90;;;;;;5051786;28;20460;-70
2022/06/10 01:45:10;;;;;;;6.50;4.10;;;14.60;99.90;;;;;;5032373;28;20485;-71
2022/06/10 01:47:54;;;;;;;11.10;4.47;;;14.60;1.00;;;;;;5034474;28;20526;-70
2022/06/10 01:50:44;;;;;;;4.57;4.07;;;14.50;1.00;;;;;;5037461;28;20487;-70
2022/06/10 01:53:30;;;;;;;6.17;4.23;;;14.50;1.00;;;;;;5053719;28;20457;-70
2022/06/10 01:56:38;;;;;;;11.53;5.17;;;14.50;1.00;;;;;;5057063;28;20455;-71
2022/06/10 01:59:21;;;;;;;4.77;4.33;;;14.40;99.90;;;;;;5046194;28;20418;-71
2022/06/10 02:01:56;;;;;;;8.00;5.90;;;14.30;1.00;;;;;;5035615;28;20430;-70
2022/06/10 02:04:27;;;;;;;10.00;4.93;;;14.20;1.00;;;;;;5035111;28;20882;-71
2022/06/10 02:07:01;;;;;;;7.20;4.40;;;14.20;1.00;;;;;;5030442;28;20505;-71
2022/06/10 02:09:36;;;;;;;9.23;4.57;;;14.20;1.00;;;;;;5030063;28;20962;-71
2022/06/10 02:12:17;;;;;;;7.13;4.50;;;14.20;99.90;;;;;;5034291;28;20456;-70
2022/06/10 02:14:53;;;;;;;7.53;4.70;;;14.30;1.00;;;;;;5070802;28;20392;-70
2022/06/10 02:17:20;;;;;;;6.03;4.60;;;14.30;99.90;;;;;;5069715;28;20459;-70
2022/06/10 02:19:53;;;;;;;9.30;4.43;;;14.20;99.90;;;;;;5070276;28;20428;-70
2022/06/10 02:22:34;;;;;;;7.70;5.70;;;14.20;1.00;;;;;;5069764;28;20909;-70
2022/06/10 02:25:05;;;;;;;10.73;5.73;;;14.10;1.00;;;;;;5070363;28;20392;-70
2022/06/10 02:27:40;;;;;;;5.73;4.43;;;14.10;1.00;;;;;;5069877;28;20405;-70
2022/06/10 02:30:08;;;;;;;7.90;6.13;;;14.20;1.00;;;;;;5066729;28;20416;-70
2022/06/10 02:32:36;;;;;;;7.53;5.30;;;14.20;1.00;;;;;;5068925;28;20440;-69
2022/06/10 02:35:03;;;;;;;8.90;4.90;;;14.20;1.00;;;;;;5070002;28;20503;-70
2022/06/10 02:37:44;;;;;;;6.30;4.97;;;14.10;99.90;;;;;;5069124;28;20469;-70
2022/06/10 02:40:16;;;;;;;8.20;5.60;;;14.00;99.90;;;;;;5069391;28;20403;-70
2022/06/10 02:43:01;;;;;;;8.30;4.83;;;14.00;1.00;;;;;;5069668;28;20865;-70
2022/06/10 02:45:58;;;;;;;10.70;5.63;;;14.00;99.90;;;;;;5069427;28;20420;-69
2022/06/10 02:48:33;;;;;;;7.07;5.30;;;14.00;99.90;;;;;;5042541;28;20771;-71
2022/06/10 02:51:00;;;;;;;6.57;5.07;;;14.00;45.90;;;;;;5059853;28;20412;-71
2022/06/10 02:53:25;;;;;;;10.23;4.90;;;14.00;99.90;;;;;;5049473;28;20429;-70
2022/06/10 02:55:51;;;;;;;8.50;4.93;;;13.90;1.00;;;;;;5049139;28;20989;-70
2022/06/10 03:01:20;;;;;;;6.70;5.30;;;13.90;1.00;;;;;;5049362;28;20262;-70
2022/06/10 03:04:06;;;;;;;5.60;4.53;;;13.70;1.00;;;;;;5049910;28;20489;-70
2022/06/10 03:06:50;;;;;;;5.43;4.60;;;13.70;99.90;;;;;;5049226;28;20416;-70
2022/06/10 03:09:46;;;;;;;7.50;5.27;;;13.60;99.90;;;;;;5048972;28;20475;-70
2022/06/10 03:12:17;;;;;;;12.23;6.20;;;13.60;99.90;;;;;;5052507;28;20520;-70
2022/06/10 03:14:46;;;;;;;10.13;5.73;;;13.70;99.90;;;;;;5069849;28;20413;-70
2022/06/10 03:17:15;;;;;;;8.37;5.70;;;13.70;99.90;;;;;;5053597;28;20475;-70
2022/06/10 03:19:44;;;;;;;10.57;6.10;;;13.60;1.00;;;;;;5049088;28;20447;-72
2022/06/10 03:22:35;;;;;;;11.80;5.63;;;13.50;99.90;;;;;;5049014;28;20932;-71
2022/06/10 03:25:24;;;;;;;7.17;4.97;;;13.50;99.90;;;;;;5049005;28;20390;-70
2022/06/10 03:28:35;;;;;;;10.13;5.47;;;13.50;99.90;;;;;;5048695;28;20409;-70
2022/06/10 03:31:08;;;;;;;9.13;6.20;;;13.40;99.90;;;;;;4947710;28;20424;-70
2022/06/10 03:33:40;;;;;;;12.33;5.70;;;13.30;99.90;;;;;;5040283;28;20468;-69
2022/06/10 03:36:07;;;;;;;12.30;5.77;;;13.30;99.90;;;;;;5048790;28;20476;-70
2022/06/10 03:38:37;;;;;;;6.40;4.83;;;13.30;99.90;;;;;;5047870;28;20893;-70
2022/06/10 03:41:03;;;;;;;5.37;4.83;;;13.20;1.00;;;;;;5048504;28;20408;-71
2022/06/10 03:43:34;;;;;;;8.00;6.00;;;13.30;99.90;;;;;;5048552;28;20933;-70
2022/06/10 03:46:06;;;;;;;6.43;4.47;;;13.30;99.90;;;;;;5049259;28;20151;-69
2022/06/10 03:48:35;;;;;;;8.63;5.80;;;13.40;99.90;;;;;;5048157;28;20500;-69
2022/06/10 03:51:01;;;;;;;7.97;4.70;;;13.50;1.00;;;;;;5048357;28;20405;-68
2022/06/10 03:53:27;;;;;;;6.10;4.43;;;13.60;99.90;;;;;;5048325;28;21014;-71
2022/06/10 03:55:53;;;;;;;7.50;4.77;;;13.80;1.00;;;;;;5048296;28;20171;-71
2022/06/10 03:58:19;;;;;;;6.17;3.90;;;13.90;1.00;;;;;;5047753;28;20205;-69
2022/06/10 04:00:46;;;;;;;8.73;4.60;;;14.10;99.90;;;;;;5049508;28;20470;-69
2022/06/10 04:03:11;;;;;;;10.10;4.43;;;14.40;1.00;;;;;;5048955;28;20957;-69
2022/06/10 04:05:37;;;;;;;11.47;4.50;;;14.60;99.90;;;;;;5048914;28;20433;-70
2022/06/10 04:08:04;;;;;;;14.13;4.73;;;14.60;99.90;;;;;;5048055;28;20253;-68
2022/06/10 04:10:30;;;;;;;5.20;3.70;;;14.80;83.90;;;;;;5048418;28;20661;-70
2022/06/10 04:12:57;;;;;;;7.83;4.37;;;15.00;1.00;;;;;;5057739;28;20586;-70
2022/06/10 04:15:27;;;;;;;8.40;4.97;;;15.30;99.90;;;;;;5068044;28;20416;-70
2022/06/10 04:17:54;;;;;;;9.60;4.30;;;15.60;99.90;;;;;;5043633;28;20974;-69
2022/06/10 04:20:35;;;;;;;6.83;4.20;;;15.80;33.70;;;;;;5047784;28;20412;-69
2022/06/10 04:23:01;;;;;;;11.13;4.07;;;15.90;1.00;;;;;;5048090;28;20440;-69
2022/06/10 04:25:27;;;;;;;5.10;4.20;;;16.10;1.00;;;;;;5048030;28;20424;-69
2022/06/10 04:27:53;;;;;;;6.40;4.10;;;16.20;1.00;;;;;;5048564;28;20397;-69
2022/06/10 04:30:24;;;;;;;5.80;3.80;;;16.50;1.00;;;;;;5047715;28;20461;-70
2022/06/10 04:32:50;;;;;;;7.40;3.87;;;16.80;1.00;;;;;;5048411;28;20422;-69
2022/06/10 04:35:16;;;;;;;4.77;4.23;;;17.00;1.00;;;;;;5048290;28;20409;-68
2022/06/10 04:37:44;;;;;;;4.03;3.60;;;17.10;99.90;;;;;;5046091;28;20301;-70
2022/06/10 04:40:13;;;;;;;8.70;3.77;;;17.30;99.90;;;;;;5047891;28;20520;-71
2022/06/10 04:42:39;;;;;;;8.50;3.50;;;17.40;99.90;;;;;;5048431;28;20506;-68
2022/06/10 04:45:05;;;;;;;4.20;3.57;;;17.60;99.90;;;;;;5048128;28;20481;-69
2022/06/10 04:47:30;;;;;;;6.73;4.23;;;18.00;99.90;;;;;;5048246;28;20425;-68
2022/06/10 04:49:59;;;;;;;4.27;3.80;;;18.30;99.90;;;;;;5048309;28;20424;-70
2022/06/10 04:52:26;;;;;;;9.37;4.30;;;18.50;99.90;;;;;;5047385;28;20206;-70
2022/06/10 04:54:52;;;;;;;7.97;5.20;;;18.60;99.90;;;;;;5045808;28;20898;-68
2022/06/10 04:57:17;;;;;;;8.50;5.20;;;18.80;99.90;;;;;;5047996;28;20456;-70
2022/06/10 04:59:43;;;;;;;11.00;5.83;;;19.10;99.90;;;;;;5050459;28;20162;-70
2022/06/10 05:02:09;;;;;;;8.40;5.73;;;19.30;99.90;;;;;;5047337;28;20760;-69
2022/06/10 05:04:34;;;;;;;12.67;4.93;;;19.60;99.90;;;;;;5050486;28;20248;-69
2022/06/10 05:07:00;;;;;;;8.67;5.50;;;19.80;99.90;;;;;;5050365;28;20266;-68
2022/06/10 05:09:26;;;;;;;11.20;6.17;;;19.80;99.90;;;;;;5051194;28;20212;-70
2022/06/10 05:11:52;;;;;;;11.33;6.07;;;20.00;99.90;;;;;;5053516;28;20179;-70
2022/06/10 05:14:17;;;;;;;10.60;5.73;;;20.30;99.90;;;;;;5054740;28;20262;-69
2022/06/10 05:16:43;;;;;;;8.90;5.20;;;20.70;99.90;;;;;;5052379;28;20217;-70
2022/06/10 05:19:09;;;;;;;7.63;5.80;;;20.50;99.90;;;;;;5051873;28;20167;-70
2022/06/10 05:21:35;;;;;;;8.80;5.40;;;21.00;99.90;;;;;;5046743;28;20822;-72
2022/06/10 05:24:01;;;;;;;8.57;6.27;;;21.40;99.90;;;;;;5048717;28;20186;-71
2022/06/10 05:26:29;;;;;;;8.70;5.33;;;21.90;99.90;;;;;;5050518;28;20191;-73
2022/06/10 05:28:55;;;;;;;7.40;6.07;;;22.50;99.90;;;;;;5048504;28;20213;-73
2022/06/10 05:31:21;;;;;;;11.30;7.10;;;22.80;99.90;;;;;;5048531;28;20873;-69
2022/06/10 05:36:31;;;;;;;6.27;4.93;;;23.00;99.90;;;;;;5061694;28;20224;-70
2022/06/10 05:38:57;;;;;;;10.67;5.07;;;23.60;99.90;;;;;;5066596;28;20472;-71
2022/06/10 05:44:07;;;;;;;7.20;5.23;;;24.00;99.90;;;;;;5066596;28;20253;-71
2022/06/10 05:46:33;;;;;;;16.10;7.20;;;24.10;99.90;;;;;;5056077;28;20496;-70
2022/06/10 05:48:58;;;;;;;8.40;6.27;;;24.30;99.90;;;;;;5055492;28;20223;-72
2022/06/10 05:51:24;;;;;;;15.10;6.30;;;24.60;99.90;;;;;;5067714;28;20593;-72
2022/06/10 05:53:50;;;;;;;12.20;6.33;;;24.50;99.90;;;;;;5067544;28;20174;-71
2022/06/10 05:56:15;;;;;;;7.67;5.90;;;25.00;99.90;;;;;;5067788;28;20189;-72
2022/06/10 05:58:41;;;;;;;8.77;5.37;;;25.20;99.90;;;;;;5067268;28;20605;-71
2022/06/10 06:01:07;;;;;;;9.97;5.20;;;25.30;99.90;;;;;;5066839;28;20171;-74
2022/06/10 06:03:33;;;;;;;11.63;5.60;;;24.60;99.90;;;;;;5059032;28;20190;-74
2022/06/10 06:05:59;;;;;;;8.47;5.23;;;24.90;99.90;;;;;;5059926;28;20401;-75
2022/06/10 06:08:24;;;;;;;9.70;4.80;;;25.00;99.90;;;;;;5066008;28;20290;-74
2022/06/10 06:10:50;;;;;;;10.43;6.37;;;25.00;99.90;;;;;;5067414;28;20424;-74
2022/06/10 06:13:16;;;;;;;4.83;4.40;;;25.20;99.90;;;;;;5063422;28;20186;-74
2022/06/10 06:15:41;;;;;;;9.30;5.20;;;26.20;99.90;;;;;;5059725;28;20581;-72
2022/06/10 06:18:08;;;;;;;8.70;4.53;;;26.90;99.90;;;;;;5061687;28;20203;-73
2022/06/10 06:20:34;;;;;;;5.40;3.33;;;26.20;97.30;;;;;;5064753;28;20225;-72
2022/06/10 06:22:59;;;;;;;12.10;4.40;;;26.40;95.10;;;;;;5065047;28;20467;-74
2022/06/10 06:25:25;;;;;;;12.73;5.30;;;26.70;93.40;;;;;;5064572;28;20182;-70
2022/06/10 06:27:52;;;;;;;8.53;4.40;;;27.60;91.60;;;;;;5063524;28;20254;-72
2022/06/10 06:30:31;;;;;;;7.90;4.10;;;28.20;87.50;;;;;;5063461;28;20197;-71
2022/06/10 06:32:59;;;;;;;7.30;4.33;;;27.20;78.50;;;;;;5063837;28;20478;-69
2022/06/10 06:35:25;;;;;;;13.93;4.67;;;27.60;74.20;;;;;;5059080;28;20427;-71
2022/06/10 06:37:51;;;;;;;8.13;4.50;;;27.70;69.10;;;;;;5065413;28;20505;-71
2022/06/10 06:40:17;;;;;;;11.10;4.40;;;27.50;63.60;;;;;;5065547;28;20525;-69
2022/06/10 06:42:44;;;;;;;7.40;4.50;;;28.30;61.30;;;;;;5062299;28;20292;-72
2022/06/10 06:45:11;;;;;;;6.00;4.87;;;29.40;58.80;;;;;;5064850;28;20189;-71
2022/06/10 06:47:38;;;;;;;7.93;4.33;;;29.80;54.40;;;;;;5059960;28;20436;-70
2022/06/10 06:50:04;;;;;;;7.90;4.90;;;30.40;50.30;;;;;;5057564;28;20477;-72
2022/06/10 06:52:30;;;;;;;12.97;4.50;;;29.50;45.30;;;;;;5059370;28;20440;-71
2022/06/10 06:54:56;;;;;;;47.87;9.07;;;29.00;41.30;;;;;;5064588;28;20816;-71
2022/06/10 06:57:22;;;;;;;7.50;4.80;;;29.50;39.60;;;;;;5065299;28;20196;-71
2022/06/10 06:59:48;;;;;;;6.70;4.23;;;28.70;34.60;;;;;;5065724;28;20178;-70
2022/06/10 07:02:13;;;;;;;6.73;4.00;;;27.90;31.10;;;;;;5065591;28;20435;-70
2022/06/10 07:04:39;;;;;;;10.90;4.67;;;27.90;31.90;;;;;;5060814;28;20182;-70
2022/06/10 07:07:05;;;;;;;10.47;4.53;;;28.70;29.70;;;;;;5058152;28;20201;-71
2022/06/10 07:09:31;;;;;;;7.30;4.13;;;30.00;28.60;;;;;;5058175;28;20211;-72
2022/06/10 07:11:57;;;;;;;4.80;3.50;;;30.40;25.30;;;;;;5060827;28;20463;-70
2022/06/10 07:14:23;;;;;;;5.53;3.50;;;29.90;23.40;;;;;;5069816;28;20185;-73
2022/06/10 07:16:52;;;;;;;6.27;3.33;;;29.70;19.90;;;;;;5067501;28;20613;-73
2022/06/10 07:19:22;;;;;;;5.73;3.63;;;29.30;18.00;;;;;;5068102;28;20422;-72
2022/06/10 07:21:48;;;;;;;12.50;3.93;;;29.50;16.40;;;;;;5068199;28;20435;-72
2022/06/10 07:24:13;;;;;;;5.47;3.37;;;30.00;15.00;;;;;;5068494;28;20464;-73
2022/06/10 07:26:39;;;;;;;8.30;3.30;;;30.20;12.50;;;;;;5068885;28;20173;-72
2022/06/10 07:29:06;;;;;;;8.07;4.07;;;30.10;10.60;;;;;;5067715;28;20189;-72
2022/06/10 07:31:34;;;;;;;7.30;3.60;;;31.10;9.80;;;;;;5067805;28;20431;-73
2022/06/10 07:34:00;;;;;;;3.30;3.00;;;32.10;7.80;;;;;;5049825;28;20431;-72
2022/06/10 07:36:26;;;;;;;11.00;3.33;;;32.70;4.80;;;;;;5069104;28;20201;-72
2022/06/10 07:38:53;;;;;;;10.23;3.70;;;32.50;2.20;;;;;;5069779;28;20187;-71
2022/06/10 07:44:03;;;;;;;6.68;3.15;;;33.70;1.00;;;;;;5070509;28;20160;-71
2022/06/10 07:46:29;;;;;;;6.65;2.97;;;33.70;1.00;;;;;;5043687;28;20253;-71
2022/06/10 07:48:55;;;;;;;7.90;3.58;;;33.70;1.00;;;;;;5063580;28;20854;-70
2022/06/10 07:51:21;;;;;;;4.90;2.63;;;34.10;1.00;;;;;;5065526;28;20268;-71
2022/06/10 07:53:47;;;;;;;10.90;3.10;;;33.60;1.00;;;;;;5070360;28;20237;-71
2022/06/10 07:56:14;;;;;;;7.70;3.13;;;32.60;1.00;;;;;;5071179;28;20208;-71
2022/06/10 07:58:40;;;;;;;5.27;3.03;;;32.30;1.00;;;;;;5075412;28;20177;-70
2022/06/10 08:01:06;;;;;;;11.20;4.20;;;31.30;1.00;;;;;;5075544;28;20173;-70
2022/06/10 08:03:32;;;;;;;5.97;2.60;;;30.50;1.00;;;;;;5070273;28;20189;-70
2022/06/10 08:05:59;;;;;;;5.90;3.40;;;30.10;1.00;;;;;;5066111;28;20539;-68
2022/06/10 08:08:25;;;;;;;9.93;3.93;;;29.70;1.00;;;;;;5055741;28;20178;-71
2022/06/10 08:10:51;;;;;;;6.40;3.53;;;31.80;1.00;;;;;;5059769;28;20223;-72
2022/06/10 08:13:18;;;;;;;9.97;3.50;;;32.10;1.00;;;;;;5068471;28;20199;-71
2022/06/10 08:15:45;;;;;;;13.63;3.80;;;31.50;1.00;;;;;;5066809;28;20256;-69
2022/06/10 08:18:14;;;;;;;10.47;3.90;;;30.20;1.00;;;;;;5066974;28;20561;-70
2022/06/10 08:23:28;;;;;;;5.83;3.13;;;33.10;1.00;;;;;;5067945;28;20205;-71
2022/06/10 08:25:54;;;;;;;5.85;2.95;;;34.20;1.00;;;;;;5068288;28;20279;-72
2022/06/10 08:28:21;;;;;;;5.10;3.67;;;35.30;1.00;;;;;;5069269;28;20176;-71
2022/06/10 08:30:47;;;;;;;6.57;3.60;;;34.40;1.00;;;;;;5053080;28;20185;-71
2022/06/10 08:33:13;;;;;;;6.97;3.80;;;33.60;1.00;;;;;;5070636;28;20193;-71
2022/06/10 08:35:39;;;;;;;11.13;3.77;;;33.50;1.00;;;;;;5071297;28;20173;-71
2022/06/10 08:38:07;;;;;;;9.20;3.28;;;33.90;1.00;;;;;;5051917;28;20607;-70
2022/06/10 08:40:55;;;;;;;5.10;3.00;;;34.80;1.00;;;;;;5070974;28;20177;-72
2022/06/10 08:43:31;;;;;;;6.07;2.70;;;34.90;1.00;;;;;;5070683;28;20224;-70
2022/06/10 08:46:14;;;;;;;15.27;3.25;;;34.10;1.00;;;;;;5070148;28;20173;-69
2022/06/10 08:49:01;;;;;;;8.75;3.83;;;34.90;1.00;;;;;;5066118;28;20180;-70
2022/06/10 08:51:47;;;;;;;6.25;2.90;;;36.50;1.00;;;;;;5068235;28;20211;-70
2022/06/10 08:54:32;;;;;;;5.72;2.67;;;36.80;1.00;;;;;;5063339;28;20247;-70
2022/06/10 08:57:22;;;;;;;11.00;2.38;;;35.60;1.00;;;;;;5069918;28;20247;-70
2022/06/10 08:59:49;;;;;;;5.05;2.35;;;33.60;1.00;;;;;;5070085;28;20287;-71
2022/06/10 09:02:27;;;;;;;4.07;2.37;;;32.30;1.00;;;;;;5069276;28;20190;-71
2022/06/10 09:05:13;;;;;;;9.60;2.63;;;32.60;1.00;;;;;;5070821;28;20382;-72
2022/06/10 09:07:49;;;;;;;4.33;2.57;;;33.00;1.00;;;;;;5070388;28;20191;-71
2022/06/10 09:10:42;;;;;;;7.03;2.10;;;33.90;1.00;;;;;;5069674;28;20275;-70
2022/06/10 09:13:28;;;;;;;7.17;2.43;;;32.20;1.00;;;;;;5073472;28;20189;-70
2022/06/10 09:15:53;;;;;;;9.40;2.00;;;32.80;1.00;;;;;;5072898;28;20181;-69
2022/06/10 09:18:54;;;;;;;6.30;2.77;;;30.80;1.00;;;;;;5070008;28;20213;-71
2022/06/10 09:21:40;;;;;;;14.37;2.50;;;30.80;1.00;;;;;;4997788;28;20271;-71
2022/06/10 09:24:17;;;;;;;25.50;4.30;;;30.90;1.00;;;;;;5070326;28;20247;-70
2022/06/10 09:26:49;;;;;;;10.10;2.37;;;30.50;1.00;;;;;;5070886;28;20235;-70
2022/06/10 09:29:16;;;;;;;5.73;2.00;;;32.10;1.00;;;;;;5070862;28;20412;-71
2022/06/10 09:31:49;;;;;;;6.23;2.40;;;33.00;1.00;;;;;;5070643;28;20246;-70
2022/06/10 09:34:31;;;;;;;3.00;2.33;;;31.90;1.00;;;;;;5071168;28;20166;-72
2022/06/10 09:37:02;;;;;;;4.27;2.03;;;30.70;1.00;;;;;;5052332;28;20258;-71
2022/06/10 09:43:12;;;;;;;2.80;1.53;;;30.90;1.00;;;;;;5069450;28;20212;-70
2022/06/10 09:46:13;;;;;;;5.53;2.60;;;31.20;1.00;;;;;;5067089;28;20509;-71
2022/06/10 09:48:58;;;;;;;3.47;1.67;;;31.00;1.00;;;;;;5008285;28;20650;-71
2022/06/10 09:51:25;;;;;;;8.00;2.33;;;29.40;1.00;;;;;;5070022;28;21512;-71
2022/06/10 09:54:06;;;;;;;3.30;1.60;;;29.90;1.00;;;;;;5070789;28;20880;-71
2022/06/10 09:56:54;;;;;;;4.23;2.20;;;29.80;1.00;;;;;;5070064;28;20742;-71
2022/06/10 09:59:46;;;;;;;4.80;2.23;;;30.10;1.00;;;;;;5069348;28;20755;-70
2022/06/10 10:02:31;;;;;;;3.43;2.10;;;30.40;1.00;;;;;;5033910;28;20445;-70
2022/06/10 10:05:19;;;;;;;7.93;2.23;;;31.10;1.00;;;;;;5051695;28;20459;-70
2022/06/10 10:07:51;;;;;;;5.50;3.10;;;30.00;1.00;;;;;;5068258;28;20527;-69
2022/06/10 10:10:16;;;;;;;9.83;2.70;;;28.30;1.00;;;;;;5071649;28;20419;-71
2022/06/10 10:12:54;;;;;;;5.73;2.30;;;27.20;1.00;;;;;;5070953;28;20445;-70
2022/06/10 10:15:33;;;;;;;8.00;2.20;;;27.30;1.00;;;;;;5065961;28;20163;-70
2022/06/10 10:18:12;;;;;;;3.00;1.93;;;27.30;1.00;;;;;;5051326;28;20466;-70
2022/06/10 10:21:14;;;;;;;4.40;2.40;;;27.30;1.00;;;;;;5070102;28;20427;-71
2022/06/10 10:23:42;;;;;;;4.33;2.30;;;26.40;1.00;;;;;;5065088;28;20584;-70
2022/06/10 10:26:37;;;;;;;3.53;2.03;;;26.80;1.00;;;;;;5070591;28;20592;-72
2022/06/10 10:29:11;;;;;;;8.10;2.60;;;28.50;1.00;;;;;;5051355;28;20485;-70
2022/06/10 10:31:43;;;;;;;4.80;2.17;;;29.10;1.00;;;;;;5070105;28;20432;-71
2022/06/10 10:34:18;;;;;;;4.47;2.90;;;29.70;1.00;;;;;;5070269;28;20432;-72
2022/06/10 10:36:44;;;;;;;9.47;3.30;;;29.30;1.00;;;;;;5070784;28;20486;-71
2022/06/10 10:39:17;;;;;;;6.20;2.30;;;28.50;1.00;;;;;;5069709;28;20562;-71
2022/06/10 10:41:48;;;;;;;7.60;2.60;;;27.50;1.00;;;;;;5071122;28;20444;-70
2022/06/10 10:44:32;;;;;;;2.73;2.27;;;28.10;1.00;;;;;;5069731;28;20419;-71
2022/06/10 10:46:59;;;;;;;3.30;2.43;;;27.00;1.00;;;;;;5071734;28;20432;-69
2022/06/10 10:49:33;;;;;;;4.17;2.20;;;26.40;1.00;;;;;;5070062;28;20424;-68
2022/06/10 10:52:05;;;;;;;5.00;2.20;;;25.50;1.00;;;;;;5068975;28;20440;-69
2022/06/10 10:54:33;;;;;;;16.30;3.03;;;24.70;1.00;;;;;;5064328;28;20408;-69
2022/06/10 10:57:01;;;;;;;8.50;3.20;;;24.00;1.00;;;;;;5069854;28;20448;-69
2022/06/10 10:59:32;;;;;;;15.17;2.90;;;24.50;1.00;;;;;;5069780;28;20431;-70
2022/06/10 11:01:59;;;;;;;4.83;2.57;;;24.90;1.00;;;;;;5069413;28;20437;-70
2022/06/10 11:04:36;;;;;;;9.97;2.50;;;25.40;1.00;;;;;;5067444;28;20478;-70
2022/06/10 11:07:11;;;;;;;3.40;2.10;;;25.30;1.00;;;;;;5065247;28;20427;-69
2022/06/10 11:09:45;;;;;;;3.60;2.23;;;26.20;1.00;;;;;;5067028;28;20485;-69
2022/06/10 11:12:16;;;;;;;5.90;3.10;;;26.30;1.00;;;;;;5068011;28;20431;-70
2022/06/10 11:14:47;;;;;;;2.40;1.77;;;26.50;1.00;;;;;;5064501;28;20427;-68
2022/06/10 11:17:13;;;;;;;4.37;1.97;;;26.50;1.00;;;;;;5066890;28;20455;-68
2022/06/10 11:19:44;;;;;;;4.17;1.80;;;26.50;1.00;;;;;;5067648;28;20424;-68
2022/06/10 11:22:19;;;;;;;2.83;2.00;;;26.10;1.00;;;;;;5068023;28;20436;-68
2022/06/10 11:24:56;;;;;;;10.43;2.53;;;26.40;1.00;;;;;;5066680;28;20461;-70
2022/06/10 11:27:48;;;;;;;5.40;2.10;;;27.20;1.00;;;;;;5067286;28;20418;-67
2022/06/10 11:30:13;;;;;;;5.63;2.27;;;26.50;1.00;;;;;;5057691;28;20944;-70
2022/06/10 11:32:48;;;;;;;2.70;2.40;;;26.40;1.00;;;;;;5050352;28;20459;-68
2022/06/10 11:35:57;;;;;;;10.57;3.70;;;26.80;1.00;;;;;;5067767;28;20650;-69
2022/06/10 11:38:26;;;;;;;5.90;3.00;;;26.10;1.00;;;;;;5066897;28;20464;-70
2022/06/10 11:40:57;;;;;;;2.90;2.23;;;25.70;1.00;;;;;;5068583;28;20477;-68
2022/06/10 11:43:28;;;;;;;3.10;2.33;;;25.20;1.00;;;;;;5068143;28;20559;-68
2022/06/10 11:46:04;;;;;;;5.03;2.40;;;25.20;1.00;;;;;;5067399;28;20498;-72
2022/06/10 11:49:02;;;;;;;3.47;2.30;;;25.40;1.00;;;;;;5066618;28;20399;-68
2022/06/10 11:51:54;;;;;;;5.23;3.67;;;23.70;1.00;;;;;;5033970;28;20440;-69
2022/06/10 11:54:26;;;;;;;14.90;2.83;;;24.50;1.00;;;;;;5067722;28;20459;-68
2022/06/10 11:59:53;;;;;;;4.47;2.40;;;24.30;1.00;;;;;;5065206;28;20475;-70
2022/06/10 12:02:31;;;;;;;10.60;3.03;;;24.60;1.00;;;;;;5066605;28;22060;-69
2022/06/10 12:05:06;;;;;;;7.63;2.40;;;25.20;1.00;;;;;;5067581;28;20532;-70
2022/06/10 12:07:34;;;;;;;2.87;1.97;;;25.50;1.00;;;;;;5066926;28;20416;-70
2022/06/10 12:10:05;;;;;;;6.87;2.60;;;24.90;1.00;;;;;;5067128;28;20830;-68
2022/06/10 12:12:37;;;;;;;4.13;1.90;;;24.20;1.00;;;;;;5067495;28;20471;-71
2022/06/10 12:15:24;;;;;;;4.33;2.20;;;24.40;1.00;;;;;;5065228;28;20428;-70
2022/06/10 12:17:56;;;;;;;6.77;2.50;;;24.80;1.00;;;;;;5065545;28;20789;-69
2022/06/10 12:20:42;;;;;;;4.23;2.23;;;24.90;1.00;;;;;;5066429;28;20405;-69
2022/06/10 12:23:22;;;;;;;10.13;2.63;;;24.00;1.00;;;;;;5066837;28;20468;-73
2022/06/10 12:26:27;;;;;;;13.93;3.10;;;24.30;1.00;;;;;;5066373;28;20578;-71
2022/06/10 12:29:04;;;;;;;22.50;2.97;;;25.20;1.00;;;;;;4980486;28;20423;-68
2022/06/10 12:31:35;;;;;;;4.93;2.90;;;25.40;1.00;;;;;;5059522;28;20855;-69
2022/06/10 12:34:10;;;;;;;4.57;2.30;;;26.20;1.00;;;;;;5067948;28;20443;-69
2022/06/10 12:36:45;;;;;;;12.27;2.77;;;26.40;1.00;;;;;;5066407;28;20539;-69
2022/06/10 12:39:44;;;;;;;4.93;2.40;;;26.30;1.00;;;;;;5065707;28;20414;-72
2022/06/10 12:42:25;;;;;;;2.83;2.17;;;25.80;1.00;;;;;;5065656;28;20785;-69
2022/06/10 12:44:55;;;;;;;3.83;2.00;;;25.40;1.00;;;;;;5066178;28;20440;-68
2022/06/10 12:47:30;;;;;;;6.90;2.50;;;25.10;1.00;;;;;;5065356;28;20424;-69
2022/06/10 12:49:59;;;;;;;4.33;2.13;;;24.80;1.00;;;;;;5066947;28;20881;-71
2022/06/10 12:52:38;;;;;;;3.70;2.20;;;25.00;1.00;;;;;;5065819;28;20440;-69
2022/06/10 12:55:13;;;;;;;3.77;2.47;;;24.70;1.00;;;;;;5047402;28;20500;-71
2022/06/10 12:57:41;;;;;;;3.27;2.10;;;24.50;1.00;;;;;;5064566;28;20596;-69
2022/06/10 13:00:19;;;;;;;5.10;2.47;;;24.30;1.00;;;;;;5066191;28;20420;-72
2022/06/10 13:02:44;;;;;;;5.40;2.20;;;24.10;1.00;;;;;;5066342;28;20932;-71
2022/06/10 13:05:18;;;;;;;5.70;2.73;;;23.90;1.00;;;;;;5065871;28;20503;-68
2022/06/10 13:07:44;;;;;;;4.97;2.23;;;24.50;1.00;;;;;;5065223;28;20186;-69
2022/06/10 13:10:28;;;;;;;2.43;1.63;;;24.90;1.00;;;;;;5066466;28;20419;-69
2022/06/10 13:13:09;;;;;;;4.37;1.93;;;24.30;1.00;;;;;;5043452;28;20997;-71
2022/06/10 13:15:36;;;;;;;3.60;2.07;;;24.40;1.00;;;;;;5066322;28;20416;-68
2022/06/10 13:18:32;;;;;;;4.43;2.40;;;24.00;1.00;;;;;;5062265;28;20448;-70
2022/06/10 13:21:13;;;;;;;3.87;2.23;;;24.10;1.00;;;;;;5042494;28;20499;-68
2022/06/10 13:24:00;;;;;;;7.63;2.50;;;24.20;1.00;;;;;;5061920;28;20459;-68
2022/06/10 13:26:28;;;;;;;7.20;2.20;;;24.00;1.00;;;;;;5064994;28;20470;-70
2022/06/10 13:29:05;;;;;;;10.93;4.80;;;24.00;1.00;;;;;;5066083;28;20417;-70
2022/06/10 13:31:30;;;;;;;11.03;2.30;;;23.60;1.00;;;;;;5064490;28;20733;-68
2022/06/10 13:34:03;;;;;;;4.13;2.20;;;23.50;1.00;;;;;;5063439;28;20498;-68
2022/06/10 13:36:44;;;;;;;7.13;2.30;;;23.40;1.00;;;;;;5073363;28;20209;-70
2022/06/10 13:39:26;;;;;;;6.60;1.90;;;23.80;1.00;;;;;;5072672;28;20444;-72
2022/06/10 13:41:53;;;;;;;2.33;1.87;;;24.20;1.00;;;;;;5053997;28;20478;-68